sensor_id;sensor_type;location;lat;lon;timestamp;P1;durP1;ratioP1;P2;durP2;ratioP2
11010;SDS011;5558;42.702;23.178;2023-08-30T00:00:51;7.70;;;6.80;;
11010;SDS011;5558;42.702;23.178;2023-08-30T00:03:20;7.40;;;6.23;;
11010;SDS011;5558;42.702;23.178;2023-08-30T00:05:46;8.40;;;6.80;;
11010;SDS011;5558;42.702;23.178;2023-08-30T00:08:13;7.83;;;6.97;;
11010;SDS011;5558;42.702;23.178;2023-08-30T00:10:43;9.33;;;7.50;;
11010;SDS011;5558;42.702;23.178;2023-08-30T00:13:10;8.00;;;7.20;;
11010;SDS011;5558;42.702;23.178;2023-08-30T00:15:37;8.43;;;6.90;;
11010;SDS011;5558;42.702;23.178;2023-08-30T00:18:03;8.63;;;7.27;;
11010;SDS011;5558;42.702;23.178;2023-08-30T00:20:32;8.53;;;7.03;;
11010;SDS011;5558;42.702;23.178;2023-08-30T00:22:59;8.67;;;7.20;;
11010;SDS011;5558;42.702;23.178;2023-08-30T00:25:26;7.80;;;6.90;;
11010;SDS011;5558;42.702;23.178;2023-08-30T00:27:52;8.43;;;7.47;;
11010;SDS011;5558;42.702;23.178;2023-08-30T00:30:19;8.50;;;6.63;;
11010;SDS011;5558;42.702;23.178;2023-08-30T00:32:46;8.70;;;6.50;;
11010;SDS011;5558;42.702;23.178;2023-08-30T00:35:13;7.50;;;6.80;;
11010;SDS011;5558;42.702;23.178;2023-08-30T00:37:41;7.70;;;6.90;;
11010;SDS011;5558;42.702;23.178;2023-08-30T00:40:08;10.17;;;7.20;;
11010;SDS011;5558;42.702;23.178;2023-08-30T00:42:35;7.67;;;6.87;;
11010;SDS011;5558;42.702;23.178;2023-08-30T00:45:02;7.67;;;6.87;;
11010;SDS011;5558;42.702;23.178;2023-08-30T00:47:28;8.07;;;7.00;;
11010;SDS011;5558;42.702;23.178;2023-08-30T00:49:55;8.47;;;6.70;;
11010;SDS011;5558;42.702;23.178;2023-08-30T00:52:22;10.07;;;7.37;;
11010;SDS011;5558;42.702;23.178;2023-08-30T00:54:50;7.97;;;7.20;;
11010;SDS011;5558;42.702;23.178;2023-08-30T00:57:17;8.90;;;7.60;;
11010;SDS011;5558;42.702;23.178;2023-08-30T00:59:44;9.33;;;7.10;;
11010;SDS011;5558;42.702;23.178;2023-08-30T01:02:10;7.70;;;7.00;;
11010;SDS011;5558;42.702;23.178;2023-08-30T01:04:37;7.80;;;7.00;;
11010;SDS011;5558;42.702;23.178;2023-08-30T01:07:04;8.80;;;7.17;;
11010;SDS011;5558;42.702;23.178;2023-08-30T01:09:31;8.03;;;7.20;;
11010;SDS011;5558;42.702;23.178;2023-08-30T01:12:01;8.63;;;7.40;;
11010;SDS011;5558;42.702;23.178;2023-08-30T01:14:34;7.97;;;7.13;;
11010;SDS011;5558;42.702;23.178;2023-08-30T01:17:07;9.17;;;7.37;;
11010;SDS011;5558;42.702;23.178;2023-08-30T01:19:41;8.97;;;7.10;;
11010;SDS011;5558;42.702;23.178;2023-08-30T01:22:18;8.10;;;7.20;;
11010;SDS011;5558;42.702;23.178;2023-08-30T01:24:57;9.20;;;7.83;;
11010;SDS011;5558;42.702;23.178;2023-08-30T01:27:33;8.00;;;7.20;;
11010;SDS011;5558;42.702;23.178;2023-08-30T01:30:02;7.73;;;7.03;;
11010;SDS011;5558;42.702;23.178;2023-08-30T01:32:32;8.57;;;7.10;;
11010;SDS011;5558;42.702;23.178;2023-08-30T01:35:01;7.90;;;6.70;;
11010;SDS011;5558;42.702;23.178;2023-08-30T01:37:29;7.43;;;6.53;;
11010;SDS011;5558;42.702;23.178;2023-08-30T01:39:56;8.27;;;6.70;;
11010;SDS011;5558;42.702;23.178;2023-08-30T01:42:24;7.73;;;6.87;;
11010;SDS011;5558;42.702;23.178;2023-08-30T01:44:53;7.00;;;6.20;;
11010;SDS011;5558;42.702;23.178;2023-08-30T01:47:23;8.17;;;6.60;;
11010;SDS011;5558;42.702;23.178;2023-08-30T01:49:52;10.20;;;7.33;;
11010;SDS011;5558;42.702;23.178;2023-08-30T01:52:19;7.77;;;6.73;;
11010;SDS011;5558;42.702;23.178;2023-08-30T01:54:47;8.00;;;6.43;;
11010;SDS011;5558;42.702;23.178;2023-08-30T01:57:14;9.37;;;6.80;;
11010;SDS011;5558;42.702;23.178;2023-08-30T01:59:40;10.10;;;6.83;;
11010;SDS011;5558;42.702;23.178;2023-08-30T02:02:08;7.90;;;6.57;;
11010;SDS011;5558;42.702;23.178;2023-08-30T02:04:35;7.10;;;6.40;;
11010;SDS011;5558;42.702;23.178;2023-08-30T02:07:02;8.90;;;7.17;;
11010;SDS011;5558;42.702;23.178;2023-08-30T02:09:33;8.80;;;7.07;;
11010;SDS011;5558;42.702;23.178;2023-08-30T02:12:07;8.67;;;7.07;;
11010;SDS011;5558;42.702;23.178;2023-08-30T02:14:39;8.20;;;7.37;;
11010;SDS011;5558;42.702;23.178;2023-08-30T02:17:12;10.53;;;7.13;;
11010;SDS011;5558;42.702;23.178;2023-08-30T02:19:39;10.43;;;7.33;;
11010;SDS011;5558;42.702;23.178;2023-08-30T02:22:07;8.37;;;6.90;;
11010;SDS011;5558;42.702;23.178;2023-08-30T02:24:33;7.10;;;6.23;;
11010;SDS011;5558;42.702;23.178;2023-08-30T02:27:00;8.10;;;6.83;;
11010;SDS011;5558;42.702;23.178;2023-08-30T02:29:27;8.47;;;6.90;;
11010;SDS011;5558;42.702;23.178;2023-08-30T02:31:54;8.30;;;6.77;;
11010;SDS011;5558;42.702;23.178;2023-08-30T02:34:22;9.83;;;6.50;;
11010;SDS011;5558;42.702;23.178;2023-08-30T02:36:48;9.23;;;6.67;;
11010;SDS011;5558;42.702;23.178;2023-08-30T02:39:15;10.30;;;6.67;;
11010;SDS011;5558;42.702;23.178;2023-08-30T02:41:42;9.40;;;6.30;;
11010;SDS011;5558;42.702;23.178;2023-08-30T02:44:10;10.60;;;6.73;;
11010;SDS011;5558;42.702;23.178;2023-08-30T02:46:37;8.80;;;6.03;;
11010;SDS011;5558;42.702;23.178;2023-08-30T02:49:04;7.80;;;6.30;;
11010;SDS011;5558;42.702;23.178;2023-08-30T02:51:32;8.93;;;6.17;;
11010;SDS011;5558;42.702;23.178;2023-08-30T02:53:59;10.77;;;6.07;;
11010;SDS011;5558;42.702;23.178;2023-08-30T02:56:25;8.67;;;5.70;;
11010;SDS011;5558;42.702;23.178;2023-08-30T02:58:52;7.23;;;5.57;;
11010;SDS011;5558;42.702;23.178;2023-08-30T03:01:19;8.77;;;5.90;;
11010;SDS011;5558;42.702;23.178;2023-08-30T03:03:45;8.27;;;5.80;;
11010;SDS011;5558;42.702;23.178;2023-08-30T03:06:12;8.83;;;5.70;;
11010;SDS011;5558;42.702;23.178;2023-08-30T03:08:41;8.00;;;5.60;;
11010;SDS011;5558;42.702;23.178;2023-08-30T03:11:08;11.20;;;6.00;;
11010;SDS011;5558;42.702;23.178;2023-08-30T03:13:35;8.17;;;6.13;;
11010;SDS011;5558;42.702;23.178;2023-08-30T03:16:02;11.97;;;6.13;;
11010;SDS011;5558;42.702;23.178;2023-08-30T03:18:36;8.77;;;5.63;;
11010;SDS011;5558;42.702;23.178;2023-08-30T03:21:03;7.83;;;5.53;;
11010;SDS011;5558;42.702;23.178;2023-08-30T03:23:29;7.97;;;5.57;;
11010;SDS011;5558;42.702;23.178;2023-08-30T03:25:58;8.53;;;5.10;;
11010;SDS011;5558;42.702;23.178;2023-08-30T03:28:25;8.73;;;5.50;;
11010;SDS011;5558;42.702;23.178;2023-08-30T03:30:52;8.17;;;5.30;;
11010;SDS011;5558;42.702;23.178;2023-08-30T03:33:19;6.80;;;5.20;;
11010;SDS011;5558;42.702;23.178;2023-08-30T03:35:46;7.90;;;5.30;;
11010;SDS011;5558;42.702;23.178;2023-08-30T03:38:12;7.50;;;5.17;;
11010;SDS011;5558;42.702;23.178;2023-08-30T03:40:39;7.90;;;5.20;;
11010;SDS011;5558;42.702;23.178;2023-08-30T03:43:07;8.87;;;5.57;;
11010;SDS011;5558;42.702;23.178;2023-08-30T03:45:34;9.07;;;5.93;;
11010;SDS011;5558;42.702;23.178;2023-08-30T03:48:01;9.67;;;5.50;;
11010;SDS011;5558;42.702;23.178;2023-08-30T03:50:28;10.20;;;5.60;;
11010;SDS011;5558;42.702;23.178;2023-08-30T03:52:55;8.60;;;5.50;;
11010;SDS011;5558;42.702;23.178;2023-08-30T03:55:22;8.53;;;5.20;;
11010;SDS011;5558;42.702;23.178;2023-08-30T03:57:49;8.43;;;5.33;;
11010;SDS011;5558;42.702;23.178;2023-08-30T04:00:17;8.83;;;5.00;;
11010;SDS011;5558;42.702;23.178;2023-08-30T04:02:43;7.57;;;5.23;;
11010;SDS011;5558;42.702;23.178;2023-08-30T04:05:10;10.10;;;4.90;;
11010;SDS011;5558;42.702;23.178;2023-08-30T04:07:37;8.60;;;4.57;;
11010;SDS011;5558;42.702;23.178;2023-08-30T04:10:04;7.80;;;4.20;;
11010;SDS011;5558;42.702;23.178;2023-08-30T04:12:32;6.53;;;4.37;;
11010;SDS011;5558;42.702;23.178;2023-08-30T04:14:59;9.00;;;4.20;;
11010;SDS011;5558;42.702;23.178;2023-08-30T04:17:27;7.43;;;4.03;;
11010;SDS011;5558;42.702;23.178;2023-08-30T04:19:54;5.60;;;3.70;;
11010;SDS011;5558;42.702;23.178;2023-08-30T04:22:20;6.47;;;3.60;;
11010;SDS011;5558;42.702;23.178;2023-08-30T04:24:48;8.90;;;3.27;;
11010;SDS011;5558;42.702;23.178;2023-08-30T04:27:15;9.83;;;4.43;;
11010;SDS011;5558;42.702;23.178;2023-08-30T04:29:42;14.20;;;5.77;;
11010;SDS011;5558;42.702;23.178;2023-08-30T04:32:10;13.23;;;4.90;;
11010;SDS011;5558;42.702;23.178;2023-08-30T04:34:38;7.30;;;4.07;;
11010;SDS011;5558;42.702;23.178;2023-08-30T04:37:05;10.93;;;4.40;;
11010;SDS011;5558;42.702;23.178;2023-08-30T04:39:31;9.77;;;4.50;;
11010;SDS011;5558;42.702;23.178;2023-08-30T04:41:58;7.67;;;4.47;;
11010;SDS011;5558;42.702;23.178;2023-08-30T04:44:24;9.90;;;5.27;;
11010;SDS011;5558;42.702;23.178;2023-08-30T04:46:52;9.33;;;5.47;;
11010;SDS011;5558;42.702;23.178;2023-08-30T04:49:20;11.03;;;5.37;;
11010;SDS011;5558;42.702;23.178;2023-08-30T04:51:48;10.03;;;5.20;;
11010;SDS011;5558;42.702;23.178;2023-08-30T04:54:14;6.73;;;4.50;;
11010;SDS011;5558;42.702;23.178;2023-08-30T04:56:41;9.83;;;4.90;;
11010;SDS011;5558;42.702;23.178;2023-08-30T04:59:08;8.40;;;4.87;;
11010;SDS011;5558;42.702;23.178;2023-08-30T05:01:35;9.13;;;5.27;;
11010;SDS011;5558;42.702;23.178;2023-08-30T05:04:03;8.83;;;4.97;;
11010;SDS011;5558;42.702;23.178;2023-08-30T05:06:30;7.97;;;5.30;;
11010;SDS011;5558;42.702;23.178;2023-08-30T05:08:58;7.70;;;5.20;;
11010;SDS011;5558;42.702;23.178;2023-08-30T05:11:25;7.67;;;5.30;;
11010;SDS011;5558;42.702;23.178;2023-08-30T05:13:52;9.17;;;6.00;;
11010;SDS011;5558;42.702;23.178;2023-08-30T05:16:18;8.20;;;5.00;;
11010;SDS011;5558;42.702;23.178;2023-08-30T05:18:45;7.57;;;4.83;;
11010;SDS011;5558;42.702;23.178;2023-08-30T05:21:13;8.77;;;4.70;;
11010;SDS011;5558;42.702;23.178;2023-08-30T05:23:39;7.77;;;4.57;;
11010;SDS011;5558;42.702;23.178;2023-08-30T05:26:08;9.57;;;4.37;;
11010;SDS011;5558;42.702;23.178;2023-08-30T05:28:35;6.73;;;4.40;;
11010;SDS011;5558;42.702;23.178;2023-08-30T05:31:02;8.77;;;4.40;;
11010;SDS011;5558;42.702;23.178;2023-08-30T05:33:28;7.20;;;4.00;;
11010;SDS011;5558;42.702;23.178;2023-08-30T05:35:55;10.27;;;4.00;;
11010;SDS011;5558;42.702;23.178;2023-08-30T05:38:22;8.53;;;3.80;;
11010;SDS011;5558;42.702;23.178;2023-08-30T05:40:48;7.17;;;3.97;;
11010;SDS011;5558;42.702;23.178;2023-08-30T05:43:16;6.77;;;3.80;;
11010;SDS011;5558;42.702;23.178;2023-08-30T05:45:43;5.80;;;3.60;;
11010;SDS011;5558;42.702;23.178;2023-08-30T05:48:10;6.87;;;3.60;;
11010;SDS011;5558;42.702;23.178;2023-08-30T05:50:36;6.83;;;3.33;;
11010;SDS011;5558;42.702;23.178;2023-08-30T05:53:03;6.10;;;3.40;;
11010;SDS011;5558;42.702;23.178;2023-08-30T05:55:30;5.20;;;3.17;;
11010;SDS011;5558;42.702;23.178;2023-08-30T05:57:56;5.03;;;3.00;;
11010;SDS011;5558;42.702;23.178;2023-08-30T06:00:24;4.17;;;2.70;;
11010;SDS011;5558;42.702;23.178;2023-08-30T06:02:51;3.90;;;2.73;;
11010;SDS011;5558;42.702;23.178;2023-08-30T06:05:18;4.90;;;2.73;;
11010;SDS011;5558;42.702;23.178;2023-08-30T06:07:45;5.63;;;2.73;;
11010;SDS011;5558;42.702;23.178;2023-08-30T06:10:12;5.93;;;3.07;;
11010;SDS011;5558;42.702;23.178;2023-08-30T06:12:38;4.20;;;2.70;;
11010;SDS011;5558;42.702;23.178;2023-08-30T06:15:05;4.30;;;2.83;;
11010;SDS011;5558;42.702;23.178;2023-08-30T06:17:34;4.47;;;2.63;;
11010;SDS011;5558;42.702;23.178;2023-08-30T06:20:01;4.27;;;2.60;;
11010;SDS011;5558;42.702;23.178;2023-08-30T06:22:28;4.43;;;2.80;;
11010;SDS011;5558;42.702;23.178;2023-08-30T06:24:54;3.90;;;2.60;;
11010;SDS011;5558;42.702;23.178;2023-08-30T06:27:21;5.57;;;2.87;;
11010;SDS011;5558;42.702;23.178;2023-08-30T06:29:49;3.93;;;2.57;;
11010;SDS011;5558;42.702;23.178;2023-08-30T06:32:16;5.60;;;2.77;;
11010;SDS011;5558;42.702;23.178;2023-08-30T06:34:44;4.00;;;3.10;;
11010;SDS011;5558;42.702;23.178;2023-08-30T06:37:11;5.07;;;3.00;;
11010;SDS011;5558;42.702;23.178;2023-08-30T06:39:37;5.47;;;3.00;;
11010;SDS011;5558;42.702;23.178;2023-08-30T06:42:04;4.07;;;2.80;;
11010;SDS011;5558;42.702;23.178;2023-08-30T06:44:31;4.17;;;2.60;;
11010;SDS011;5558;42.702;23.178;2023-08-30T06:46:58;4.23;;;2.60;;
11010;SDS011;5558;42.702;23.178;2023-08-30T06:49:25;3.67;;;2.80;;
11010;SDS011;5558;42.702;23.178;2023-08-30T06:51:53;5.60;;;2.83;;
11010;SDS011;5558;42.702;23.178;2023-08-30T06:54:19;4.93;;;2.90;;
11010;SDS011;5558;42.702;23.178;2023-08-30T06:56:56;4.57;;;2.67;;
11010;SDS011;5558;42.702;23.178;2023-08-30T06:59:24;4.50;;;2.63;;
11010;SDS011;5558;42.702;23.178;2023-08-30T07:01:51;5.97;;;3.00;;
11010;SDS011;5558;42.702;23.178;2023-08-30T07:04:18;5.80;;;3.20;;
11010;SDS011;5558;42.702;23.178;2023-08-30T07:06:45;5.27;;;3.00;;
11010;SDS011;5558;42.702;23.178;2023-08-30T07:09:14;6.33;;;2.83;;
11010;SDS011;5558;42.702;23.178;2023-08-30T07:11:42;4.57;;;2.80;;
11010;SDS011;5558;42.702;23.178;2023-08-30T07:14:10;4.83;;;2.70;;
11010;SDS011;5558;42.702;23.178;2023-08-30T07:16:37;4.33;;;2.73;;
11010;SDS011;5558;42.702;23.178;2023-08-30T07:19:04;4.30;;;2.70;;
11010;SDS011;5558;42.702;23.178;2023-08-30T07:21:31;3.57;;;2.43;;
11010;SDS011;5558;42.702;23.178;2023-08-30T07:23:58;4.47;;;2.60;;
11010;SDS011;5558;42.702;23.178;2023-08-30T07:26:26;4.43;;;2.53;;
11010;SDS011;5558;42.702;23.178;2023-08-30T07:28:52;6.00;;;2.70;;
11010;SDS011;5558;42.702;23.178;2023-08-30T07:31:19;4.50;;;2.80;;
11010;SDS011;5558;42.702;23.178;2023-08-30T07:33:46;5.53;;;2.60;;
11010;SDS011;5558;42.702;23.178;2023-08-30T07:36:13;5.40;;;2.80;;
11010;SDS011;5558;42.702;23.178;2023-08-30T07:38:40;5.57;;;2.80;;
11010;SDS011;5558;42.702;23.178;2023-08-30T07:41:06;5.73;;;2.60;;
11010;SDS011;5558;42.702;23.178;2023-08-30T07:43:35;3.63;;;2.40;;
11010;SDS011;5558;42.702;23.178;2023-08-30T07:46:01;2.77;;;2.20;;
11010;SDS011;5558;42.702;23.178;2023-08-30T07:48:28;4.07;;;2.60;;
11010;SDS011;5558;42.702;23.178;2023-08-30T07:50:54;5.60;;;2.60;;
11010;SDS011;5558;42.702;23.178;2023-08-30T07:53:21;4.90;;;2.30;;
11010;SDS011;5558;42.702;23.178;2023-08-30T07:55:48;5.57;;;2.90;;
11010;SDS011;5558;42.702;23.178;2023-08-30T07:58:16;4.13;;;2.43;;
11010;SDS011;5558;42.702;23.178;2023-08-30T08:00:45;4.20;;;2.13;;
11010;SDS011;5558;42.702;23.178;2023-08-30T08:03:11;4.00;;;2.20;;
11010;SDS011;5558;42.702;23.178;2023-08-30T08:05:38;4.87;;;2.03;;
11010;SDS011;5558;42.702;23.178;2023-08-30T08:08:05;4.00;;;2.10;;
11010;SDS011;5558;42.702;23.178;2023-08-30T08:10:32;3.90;;;2.00;;
11010;SDS011;5558;42.702;23.178;2023-08-30T08:12:59;3.60;;;2.30;;
11010;SDS011;5558;42.702;23.178;2023-08-30T08:15:25;3.97;;;2.40;;
11010;SDS011;5558;42.702;23.178;2023-08-30T08:17:53;5.03;;;2.40;;
11010;SDS011;5558;42.702;23.178;2023-08-30T08:20:20;4.47;;;2.30;;
11010;SDS011;5558;42.702;23.178;2023-08-30T08:22:47;3.37;;;2.10;;
11010;SDS011;5558;42.702;23.178;2023-08-30T08:25:14;4.83;;;2.43;;
11010;SDS011;5558;42.702;23.178;2023-08-30T08:27:41;6.37;;;2.83;;
11010;SDS011;5558;42.702;23.178;2023-08-30T08:30:08;4.20;;;2.37;;
11010;SDS011;5558;42.702;23.178;2023-08-30T08:32:36;3.67;;;2.40;;
11010;SDS011;5558;42.702;23.178;2023-08-30T08:35:04;4.70;;;2.43;;
11010;SDS011;5558;42.702;23.178;2023-08-30T08:37:31;5.73;;;2.80;;
11010;SDS011;5558;42.702;23.178;2023-08-30T08:39:59;6.40;;;2.70;;
11010;SDS011;5558;42.702;23.178;2023-08-30T08:42:30;5.30;;;2.80;;
11010;SDS011;5558;42.702;23.178;2023-08-30T08:44:58;4.83;;;2.70;;
11010;SDS011;5558;42.702;23.178;2023-08-30T08:47:25;6.17;;;2.90;;
11010;SDS011;5558;42.702;23.178;2023-08-30T08:49:53;6.13;;;2.73;;
11010;SDS011;5558;42.702;23.178;2023-08-30T08:52:22;5.63;;;2.50;;
11010;SDS011;5558;42.702;23.178;2023-08-30T08:54:50;6.63;;;2.90;;
11010;SDS011;5558;42.702;23.178;2023-08-30T08:57:18;3.50;;;2.50;;
11010;SDS011;5558;42.702;23.178;2023-08-30T08:59:45;4.90;;;2.73;;
11010;SDS011;5558;42.702;23.178;2023-08-30T09:02:13;4.47;;;2.90;;
11010;SDS011;5558;42.702;23.178;2023-08-30T09:04:40;3.67;;;2.90;;
11010;SDS011;5558;42.702;23.178;2023-08-30T09:07:07;5.37;;;3.20;;
11010;SDS011;5558;42.702;23.178;2023-08-30T09:09:35;5.17;;;3.13;;
11010;SDS011;5558;42.702;23.178;2023-08-30T09:12:02;4.43;;;3.00;;
11010;SDS011;5558;42.702;23.178;2023-08-30T09:14:29;5.03;;;3.10;;
11010;SDS011;5558;42.702;23.178;2023-08-30T09:16:55;3.50;;;3.13;;
11010;SDS011;5558;42.702;23.178;2023-08-30T09:19:22;3.50;;;3.20;;
11010;SDS011;5558;42.702;23.178;2023-08-30T09:21:50;4.53;;;3.40;;
11010;SDS011;5558;42.702;23.178;2023-08-30T09:24:17;4.53;;;3.30;;
11010;SDS011;5558;42.702;23.178;2023-08-30T09:26:48;4.80;;;2.87;;
11010;SDS011;5558;42.702;23.178;2023-08-30T09:29:16;5.23;;;3.00;;
11010;SDS011;5558;42.702;23.178;2023-08-30T09:31:43;4.13;;;3.10;;
11010;SDS011;5558;42.702;23.178;2023-08-30T09:34:10;3.70;;;3.30;;
11010;SDS011;5558;42.702;23.178;2023-08-30T09:36:37;6.67;;;3.37;;
11010;SDS011;5558;42.702;23.178;2023-08-30T09:39:05;5.00;;;3.57;;
11010;SDS011;5558;42.702;23.178;2023-08-30T09:41:34;5.20;;;3.37;;
11010;SDS011;5558;42.702;23.178;2023-08-30T09:44:07;6.50;;;3.70;;
11010;SDS011;5558;42.702;23.178;2023-08-30T09:46:42;4.47;;;3.40;;
11010;SDS011;5558;42.702;23.178;2023-08-30T09:49:10;3.87;;;3.30;;
11010;SDS011;5558;42.702;23.178;2023-08-30T09:51:38;4.93;;;3.47;;
11010;SDS011;5558;42.702;23.178;2023-08-30T09:54:09;5.33;;;3.57;;
11010;SDS011;5558;42.702;23.178;2023-08-30T09:56:40;5.93;;;3.53;;
11010;SDS011;5558;42.702;23.178;2023-08-30T09:59:09;6.00;;;3.50;;
11010;SDS011;5558;42.702;23.178;2023-08-30T10:01:37;5.40;;;3.50;;
11010;SDS011;5558;42.702;23.178;2023-08-30T10:04:04;5.30;;;3.50;;
11010;SDS011;5558;42.702;23.178;2023-08-30T10:06:33;4.93;;;3.50;;
11010;SDS011;5558;42.702;23.178;2023-08-30T10:09:00;4.67;;;3.40;;
11010;SDS011;5558;42.702;23.178;2023-08-30T10:11:29;5.10;;;3.60;;
11010;SDS011;5558;42.702;23.178;2023-08-30T10:13:58;5.03;;;3.60;;
11010;SDS011;5558;42.702;23.178;2023-08-30T10:16:27;6.63;;;3.67;;
11010;SDS011;5558;42.702;23.178;2023-08-30T10:19:02;5.40;;;3.47;;
11010;SDS011;5558;42.702;23.178;2023-08-30T10:21:33;6.07;;;3.80;;
11010;SDS011;5558;42.702;23.178;2023-08-30T10:24:01;5.90;;;3.80;;
11010;SDS011;5558;42.702;23.178;2023-08-30T10:26:31;5.60;;;3.83;;
11010;SDS011;5558;42.702;23.178;2023-08-30T10:28:59;7.10;;;4.30;;
11010;SDS011;5558;42.702;23.178;2023-08-30T10:31:28;5.33;;;3.70;;
11010;SDS011;5558;42.702;23.178;2023-08-30T10:33:54;6.30;;;4.07;;
11010;SDS011;5558;42.702;23.178;2023-08-30T10:36:22;6.13;;;3.80;;
11010;SDS011;5558;42.702;23.178;2023-08-30T10:38:49;6.30;;;4.00;;
11010;SDS011;5558;42.702;23.178;2023-08-30T10:41:20;6.00;;;4.07;;
11010;SDS011;5558;42.702;23.178;2023-08-30T10:43:49;6.03;;;4.00;;
11010;SDS011;5558;42.702;23.178;2023-08-30T10:46:28;6.23;;;3.83;;
11010;SDS011;5558;42.702;23.178;2023-08-30T10:49:08;5.63;;;3.93;;
11010;SDS011;5558;42.702;23.178;2023-08-30T10:51:36;5.53;;;3.90;;
11010;SDS011;5558;42.702;23.178;2023-08-30T10:54:14;5.90;;;3.90;;
11010;SDS011;5558;42.702;23.178;2023-08-30T10:56:45;4.60;;;3.60;;
11010;SDS011;5558;42.702;23.178;2023-08-30T10:59:16;5.50;;;3.60;;
11010;SDS011;5558;42.702;23.178;2023-08-30T11:01:46;4.30;;;3.70;;
11010;SDS011;5558;42.702;23.178;2023-08-30T11:04:14;4.53;;;3.60;;
11010;SDS011;5558;42.702;23.178;2023-08-30T11:06:42;5.07;;;3.60;;
11010;SDS011;5558;42.702;23.178;2023-08-30T11:09:12;5.77;;;3.90;;
11010;SDS011;5558;42.702;23.178;2023-08-30T11:11:39;5.50;;;3.80;;
11010;SDS011;5558;42.702;23.178;2023-08-30T11:14:06;4.13;;;3.60;;
11010;SDS011;5558;42.702;23.178;2023-08-30T11:16:33;6.30;;;3.90;;
11010;SDS011;5558;42.702;23.178;2023-08-30T11:19:02;4.97;;;3.50;;
11010;SDS011;5558;42.702;23.178;2023-08-30T11:21:30;7.20;;;4.40;;
11010;SDS011;5558;42.702;23.178;2023-08-30T11:23:58;6.07;;;4.00;;
11010;SDS011;5558;42.702;23.178;2023-08-30T11:26:25;5.77;;;3.67;;
11010;SDS011;5558;42.702;23.178;2023-08-30T11:28:52;5.23;;;3.73;;
11010;SDS011;5558;42.702;23.178;2023-08-30T11:31:19;7.17;;;3.93;;
11010;SDS011;5558;42.702;23.178;2023-08-30T11:33:50;6.17;;;3.90;;
11010;SDS011;5558;42.702;23.178;2023-08-30T11:36:20;5.30;;;3.57;;
11010;SDS011;5558;42.702;23.178;2023-08-30T11:38:47;6.13;;;3.93;;
11010;SDS011;5558;42.702;23.178;2023-08-30T11:41:14;5.17;;;3.63;;
11010;SDS011;5558;42.702;23.178;2023-08-30T11:43:40;7.13;;;3.40;;
11010;SDS011;5558;42.702;23.178;2023-08-30T11:46:07;5.23;;;3.70;;
11010;SDS011;5558;42.702;23.178;2023-08-30T11:48:34;4.47;;;3.73;;
11010;SDS011;5558;42.702;23.178;2023-08-30T11:51:01;6.37;;;3.70;;
11010;SDS011;5558;42.702;23.178;2023-08-30T11:53:30;4.40;;;3.50;;
11010;SDS011;5558;42.702;23.178;2023-08-30T11:55:57;6.13;;;3.60;;
11010;SDS011;5558;42.702;23.178;2023-08-30T11:58:23;4.03;;;3.50;;
11010;SDS011;5558;42.702;23.178;2023-08-30T12:00:50;4.60;;;3.60;;
11010;SDS011;5558;42.702;23.178;2023-08-30T12:03:19;3.53;;;3.23;;
11010;SDS011;5558;42.702;23.178;2023-08-30T12:05:46;5.20;;;3.50;;
11010;SDS011;5558;42.702;23.178;2023-08-30T12:08:20;4.47;;;3.50;;
11010;SDS011;5558;42.702;23.178;2023-08-30T12:10:48;5.77;;;3.70;;
11010;SDS011;5558;42.702;23.178;2023-08-30T12:13:24;6.00;;;3.63;;
11010;SDS011;5558;42.702;23.178;2023-08-30T12:15:51;7.13;;;3.57;;
11010;SDS011;5558;42.702;23.178;2023-08-30T12:18:20;4.20;;;3.40;;
11010;SDS011;5558;42.702;23.178;2023-08-30T12:20:53;4.57;;;3.80;;
11010;SDS011;5558;42.702;23.178;2023-08-30T12:23:21;6.00;;;3.60;;
11010;SDS011;5558;42.702;23.178;2023-08-30T12:25:59;5.23;;;3.67;;
11010;SDS011;5558;42.702;23.178;2023-08-30T12:28:26;5.17;;;4.00;;
11010;SDS011;5558;42.702;23.178;2023-08-30T12:30:54;7.37;;;3.80;;
11010;SDS011;5558;42.702;23.178;2023-08-30T12:33:22;5.13;;;3.63;;
11010;SDS011;5558;42.702;23.178;2023-08-30T12:35:50;5.47;;;3.47;;
11010;SDS011;5558;42.702;23.178;2023-08-30T12:38:17;6.90;;;3.50;;
11010;SDS011;5558;42.702;23.178;2023-08-30T12:40:44;4.33;;;3.60;;
11010;SDS011;5558;42.702;23.178;2023-08-30T12:43:13;5.87;;;3.73;;
11010;SDS011;5558;42.702;23.178;2023-08-30T12:45:40;4.40;;;3.67;;
11010;SDS011;5558;42.702;23.178;2023-08-30T12:48:07;4.13;;;3.50;;
11010;SDS011;5558;42.702;23.178;2023-08-30T12:50:34;5.10;;;3.90;;
11010;SDS011;5558;42.702;23.178;2023-08-30T12:53:01;6.40;;;3.47;;
11010;SDS011;5558;42.702;23.178;2023-08-30T12:55:28;5.70;;;3.87;;
11010;SDS011;5558;42.702;23.178;2023-08-30T12:57:55;5.20;;;3.60;;
11010;SDS011;5558;42.702;23.178;2023-08-30T13:00:23;5.47;;;3.53;;
11010;SDS011;5558;42.702;23.178;2023-08-30T13:02:50;4.57;;;3.63;;
11010;SDS011;5558;42.702;23.178;2023-08-30T13:05:17;5.60;;;3.50;;
11010;SDS011;5558;42.702;23.178;2023-08-30T13:07:44;4.50;;;3.30;;
11010;SDS011;5558;42.702;23.178;2023-08-30T13:10:12;5.77;;;3.60;;
11010;SDS011;5558;42.702;23.178;2023-08-30T13:12:38;4.83;;;3.60;;
11010;SDS011;5558;42.702;23.178;2023-08-30T13:15:06;4.77;;;3.40;;
11010;SDS011;5558;42.702;23.178;2023-08-30T13:17:35;5.13;;;3.10;;
11010;SDS011;5558;42.702;23.178;2023-08-30T13:20:02;5.37;;;3.50;;
11010;SDS011;5558;42.702;23.178;2023-08-30T13:22:29;4.70;;;3.63;;
11010;SDS011;5558;42.702;23.178;2023-08-30T13:24:55;4.93;;;3.60;;
11010;SDS011;5558;42.702;23.178;2023-08-30T13:27:22;5.80;;;3.47;;
11010;SDS011;5558;42.702;23.178;2023-08-30T13:29:49;3.97;;;3.57;;
11010;SDS011;5558;42.702;23.178;2023-08-30T13:32:15;4.77;;;3.57;;
11010;SDS011;5558;42.702;23.178;2023-08-30T13:34:43;4.53;;;3.47;;
11010;SDS011;5558;42.702;23.178;2023-08-30T13:37:11;5.87;;;3.50;;
11010;SDS011;5558;42.702;23.178;2023-08-30T13:39:38;4.77;;;3.30;;
11010;SDS011;5558;42.702;23.178;2023-08-30T13:42:05;6.27;;;3.30;;
11010;SDS011;5558;42.702;23.178;2023-08-30T13:44:31;4.63;;;3.30;;
11010;SDS011;5558;42.702;23.178;2023-08-30T13:47:00;7.33;;;3.50;;
11010;SDS011;5558;42.702;23.178;2023-08-30T13:49:26;4.50;;;3.30;;
11010;SDS011;5558;42.702;23.178;2023-08-30T13:51:54;3.90;;;3.13;;
11010;SDS011;5558;42.702;23.178;2023-08-30T13:54:21;4.03;;;2.80;;
11010;SDS011;5558;42.702;23.178;2023-08-30T13:56:48;4.43;;;2.90;;
11010;SDS011;5558;42.702;23.178;2023-08-30T13:59:15;3.77;;;2.90;;
11010;SDS011;5558;42.702;23.178;2023-08-30T14:01:41;4.97;;;3.03;;
11010;SDS011;5558;42.702;23.178;2023-08-30T14:04:08;4.13;;;2.60;;
11010;SDS011;5558;42.702;23.178;2023-08-30T14:06:35;5.13;;;2.43;;
11010;SDS011;5558;42.702;23.178;2023-08-30T14:09:03;3.73;;;2.70;;
11010;SDS011;5558;42.702;23.178;2023-08-30T14:11:33;4.43;;;2.80;;
11010;SDS011;5558;42.702;23.178;2023-08-30T14:14:00;3.50;;;2.50;;
11010;SDS011;5558;42.702;23.178;2023-08-30T14:16:27;4.23;;;2.70;;
11010;SDS011;5558;42.702;23.178;2023-08-30T14:18:54;3.67;;;2.67;;
11010;SDS011;5558;42.702;23.178;2023-08-30T14:21:20;3.40;;;2.40;;
11010;SDS011;5558;42.702;23.178;2023-08-30T14:23:47;9.33;;;2.70;;
11010;SDS011;5558;42.702;23.178;2023-08-30T14:26:15;3.47;;;2.20;;
11010;SDS011;5558;42.702;23.178;2023-08-30T14:28:42;3.90;;;2.40;;
11010;SDS011;5558;42.702;23.178;2023-08-30T14:31:09;3.80;;;2.30;;
11010;SDS011;5558;42.702;23.178;2023-08-30T14:33:36;4.10;;;2.30;;
11010;SDS011;5558;42.702;23.178;2023-08-30T14:36:03;4.77;;;2.73;;
11010;SDS011;5558;42.702;23.178;2023-08-30T14:38:35;5.27;;;2.90;;
11010;SDS011;5558;42.702;23.178;2023-08-30T14:41:02;5.77;;;2.77;;
11010;SDS011;5558;42.702;23.178;2023-08-30T14:43:31;3.60;;;2.80;;
11010;SDS011;5558;42.702;23.178;2023-08-30T14:46:01;4.33;;;2.60;;
11010;SDS011;5558;42.702;23.178;2023-08-30T14:48:28;6.43;;;2.87;;
11010;SDS011;5558;42.702;23.178;2023-08-30T14:50:56;5.50;;;2.90;;